Time;durP1;ratioP1;P1;durP2;ratioP2;P2;SDS_P1;SDS_P2;PMS_P1;PMS_P2;Temp;Humidity;BMP_temperature;BMP_pressure;BME280_temperature;BME280_humidity;BME280_pressure;Samples;Min_cycle;Max_cycle;Signal;HPM_P1;HPM_P2
2022/06/09 00:01:04;;;;;;;;;;;;;;;;;;5062477;28;19904;-48
2022/06/09 00:03:30;;;;;;;;;;;;;;;;;;5075957;28;19939;-48
2022/06/09 00:05:57;;;;;;;;;;;;;;;;;;5084383;28;20407;-46
2022/06/09 00:08:24;;;;;;;;;;;;;;;;;;5084006;28;19917;-46
2022/06/09 00:10:51;;;;;;;;;;;;;;;;;;5065419;28;19912;-47
2022/06/09 00:13:17;;;;;;;;;;;;;;;;;;5064560;28;20423;-47
2022/06/09 00:15:43;;;;;;;;;;;;;;;;;;5064557;28;19908;-46
2022/06/09 00:18:10;;;;;;;;;;;;;;;;;;5063491;28;19976;-44
2022/06/09 00:20:35;;;;;;;;;;;;;;;;;;5063919;28;19962;-47
2022/06/09 00:23:01;;;;;;;;;;;;;;;;;;5063949;28;19908;-46
2022/06/09 00:25:27;;;;;;;;;;;;;;;;;;5047354;28;19923;-47
2022/06/09 00:27:54;;;;;;;;;;;;;;;;;;5044128;28;19908;-46
2022/06/09 00:30:20;;;;;;;;;;;;;;;;;;5043905;28;20339;-46
2022/06/09 00:32:47;;;;;;;;;;;;;;;;;;5044249;28;19912;-49
2022/06/09 00:35:13;;;;;;;;;;;;;;;;;;5044250;28;19909;-45
2022/06/09 00:37:40;;;;;;;;;;;;;;;;;;5047543;28;19909;-43
2022/06/09 00:40:06;;;;;;;;;;;;;;;;;;5048853;28;19916;-47
2022/06/09 00:42:32;;;;;;;;;;;;;;;;;;5055903;28;19920;-47
2022/06/09 00:44:58;;;;;;;;;;;;;;;;;;5066884;28;19977;-45
2022/06/09 00:47:24;;;;;;;;;;;;;;;;;;5069300;28;20318;-46
2022/06/09 00:49:50;;;;;;;;;;;;;;;;;;5069584;28;19908;-45
2022/06/09 00:52:16;;;;;;;;;;;;;;;;;;5069957;28;19904;-46
2022/06/09 00:54:43;;;;;;;;;;;;;;;;;;5064436;28;19978;-47
2022/06/09 00:57:09;;;;;;;;;;;;;;;;;;5049386;28;20446;-46
2022/06/09 00:59:35;;;;;;;;;;;;;;;;;;5049448;28;19999;-47
2022/06/09 01:02:01;;;;;;;;;;;;;;;;;;5049560;28;19962;-44
2022/06/09 01:04:27;;;;;;;;;;;;;;;;;;5048628;28;19999;-45
2022/06/09 01:06:52;;;;;;;;;;;;;;;;;;5049349;28;19905;-45
2022/06/09 01:09:18;;;;;;;;;;;;;;;;;;5048430;28;19916;-46
2022/06/09 01:11:44;;;;;;;;;;;;;;;;;;5049445;28;19913;-44
2022/06/09 01:14:13;;;;;;;;;;;;;;;;;;5048935;28;19948;-45
2022/06/09 01:16:39;;;;;;;;;;;;;;;;;;5048866;28;19913;-47
2022/06/09 01:19:05;;;;;;;;;;;;;;;;;;5048583;28;19912;-44
2022/06/09 01:21:31;;;;;;;;;;;;;;;;;;5048850;28;19905;-46
2022/06/09 01:23:57;;;;;;;;;;;;;;;;;;5048771;28;19912;-47
2022/06/09 01:26:23;;;;;;;;;;;;;;;;;;5048603;28;20062;-44
2022/06/09 01:28:49;;;;;;;;;;;;;;;;;;5048784;28;20407;-47
2022/06/09 01:31:15;;;;;;;;;;;;;;;;;;5059617;28;20318;-45
2022/06/09 01:33:42;;;;;;;;;;;;;;;;;;5068325;28;19908;-46
2022/06/09 01:36:08;;;;;;;;;;;;;;;;;;5068281;28;20231;-45
2022/06/09 01:38:34;;;;;;;;;;;;;;;;;;5068386;28;19947;-45
2022/06/09 01:41:00;;;;;;;;;;;;;;;;;;5060831;28;19913;-45
2022/06/09 01:43:26;;;;;;;;;;;;;;;;;;5048172;28;20431;-46
2022/06/09 01:45:52;;;;;;;;;;;;;;;;;;5053606;28;19908;-46
2022/06/09 01:48:18;;;;;;;;;;;;;;;;;;5067171;28;19910;-43
2022/06/09 01:50:44;;;;;;;;;;;;;;;;;;5068874;28;20039;-46
2022/06/09 01:53:10;;;;;;;;;;;;;;;;;;5066949;28;19908;-48
2022/06/09 01:55:36;;;;;;;;;;;;;;;;;;5068138;28;19912;-47
2022/06/09 01:58:02;;;;;;;;;;;;;;;;;;5068306;28;19904;-45
2022/06/09 02:00:28;;;;;;;;;;;;;;;;;;5067700;28;19954;-46
2022/06/09 02:02:54;;;;;;;;;;;;;;;;;;5067371;28;19909;-46
2022/06/09 02:05:20;;;;;;;;;;;;;;;;;;5066855;28;20345;-45
2022/06/09 02:07:46;;;;;;;;;;;;;;;;;;5068742;28;19943;-46
2022/06/09 02:10:12;;;;;;;;;;;;;;;;;;5068023;28;20657;-45
2022/06/09 02:12:38;;;;;;;;;;;;;;;;;;5067914;28;19979;-46
2022/06/09 02:15:04;;;;;;;;;;;;;;;;;;5067189;28;19948;-45
2022/06/09 02:17:30;;;;;;;;;;;;;;;;;;5067712;28;20003;-47
2022/06/09 02:19:56;;;;;;;;;;;;;;;;;;5057218;28;19905;-46
2022/06/09 02:22:21;;;;;;;;;;;;;;;;;;5048534;28;19970;-44
2022/06/09 02:24:47;;;;;;;;;;;;;;;;;;5048419;28;19940;-45
2022/06/09 02:27:14;;;;;;;;;;;;;;;;;;5047762;28;19955;-47
2022/06/09 02:29:40;;;;;;;;;;;;;;;;;;5047603;28;19908;-46
2022/06/09 02:32:06;;;;;;;;;;;;;;;;;;5047219;28;19905;-45
2022/06/09 02:34:32;;;;;;;;;;;;;;;;;;5047529;28;19904;-44
2022/06/09 02:36:58;;;;;;;;;;;;;;;;;;5047526;28;19905;-43
2022/06/09 02:39:24;;;;;;;;;;;;;;;;;;5047246;28;19913;-44
2022/06/09 02:41:49;;;;;;;;;;;;;;;;;;5066794;28;19912;-46
2022/06/09 02:44:15;;;;;;;;;;;;;;;;;;5067725;28;19916;-46
2022/06/09 02:46:41;;;;;;;;;;;;;;;;;;5058622;28;19955;-45
2022/06/09 02:49:07;;;;;;;;;;;;;;;;;;5047100;28;19908;-43
2022/06/09 02:51:33;;;;;;;;;;;;;;;;;;5046980;28;20512;-43
2022/06/09 02:53:59;;;;;;;;;;;;;;;;;;5046941;28;20054;-43
2022/06/09 02:56:25;;;;;;;;;;;;;;;;;;5046818;28;20057;-43
2022/06/09 02:58:51;;;;;;;;;;;;;;;;;;5046894;28;19954;-44
2022/06/09 03:01:17;;;;;;;;;;;;;;;;;;5053934;28;19908;-43
2022/06/09 03:03:43;;;;;;;;;;;;;;;;;;5067543;28;19911;-45
2022/06/09 03:06:09;;;;;;;;;;;;;;;;;;5066671;28;19938;-43
2022/06/09 03:08:35;;;;;;;;;;;;;;;;;;5066998;28;19967;-45
2022/06/09 03:11:01;;;;;;;;;;;;;;;;;;5066939;28;19908;-46
2022/06/09 03:13:27;;;;;;;;;;;;;;;;;;5053032;28;19940;-45
2022/06/09 03:15:53;;;;;;;;;;;;;;;;;;5046294;28;20279;-44
2022/06/09 03:18:19;;;;;;;;;;;;;;;;;;5061868;28;19908;-45
2022/06/09 03:20:45;;;;;;;;;;;;;;;;;;5067318;28;19908;-45
2022/06/09 03:23:11;;;;;;;;;;;;;;;;;;5066064;28;19908;-46
2022/06/09 03:25:37;;;;;;;;;;;;;;;;;;5066694;28;19951;-44
2022/06/09 03:28:03;;;;;;;;;;;;;;;;;;5066774;28;19905;-47
2022/06/09 03:30:29;;;;;;;;;;;;;;;;;;5066650;28;19943;-46
2022/06/09 03:32:55;;;;;;;;;;;;;;;;;;5066438;28;19948;-46
2022/06/09 03:35:21;;;;;;;;;;;;;;;;;;5066305;28;19914;-45
2022/06/09 03:37:47;;;;;;;;;;;;;;;;;;5067518;28;19908;-46
2022/06/09 03:40:13;;;;;;;;;;;;;;;;;;5046364;28;19947;-46
2022/06/09 03:42:39;;;;;;;;;;;;;;;;;;5046291;28;20027;-43
2022/06/09 03:45:05;;;;;;;;;;;;;;;;;;5046166;28;19915;-45
2022/06/09 03:47:32;;;;;;;;;;;;;;;;;;5046545;28;20010;-46
2022/06/09 03:49:58;;;;;;;;;;;;;;;;;;5046525;28;20366;-46
2022/06/09 03:52:24;;;;;;;;;;;;;;;;;;5056757;28;19923;-45
2022/06/09 03:54:49;;;;;;;;;;;;;;;;;;5066250;28;19908;-46
2022/06/09 03:57:15;;;;;;;;;;;;;;;;;;5066748;28;19934;-45
2022/06/09 03:59:41;;;;;;;;;;;;;;;;;;5066512;28;19908;-45
2022/06/09 04:02:07;;;;;;;;;;;;;;;;;;5066059;28;19957;-43
2022/06/09 04:04:33;;;;;;;;;;;;;;;;;;5063730;28;19959;-46
2022/06/09 04:06:59;;;;;;;;;;;;;;;;;;5066372;28;19966;-45
2022/06/09 04:09:25;;;;;;;;;;;;;;;;;;5065974;28;19916;-44
2022/06/09 04:11:51;;;;;;;;;;;;;;;;;;5067881;28;19916;-46
2022/06/09 04:14:17;;;;;;;;;;;;;;;;;;5070503;28;19911;-46
2022/06/09 04:16:44;;;;;;;;;;;;;;;;;;5070182;28;19904;-46
2022/06/09 04:19:10;;;;;;;;;;;;;;;;;;5069922;28;20410;-47
2022/06/09 04:21:36;;;;;;;;;;;;;;;;;;5068518;28;19912;-45
2022/06/09 04:24:02;;;;;;;;;;;;;;;;;;5068831;28;19923;-47
2022/06/09 04:26:28;;;;;;;;;;;;;;;;;;5069842;28;19913;-43
2022/06/09 04:28:54;;;;;;;;;;;;;;;;;;5068681;28;19919;-44
2022/06/09 04:31:20;;;;;;;;;;;;;;;;;;5068278;28;20014;-45
2022/06/09 04:33:46;;;;;;;;;;;;;;;;;;5069824;28;19908;-45
2022/06/09 04:36:11;;;;;;;;;;;;;;;;;;5069536;28;20011;-44
2022/06/09 04:38:38;;;;;;;;;;;;;;;;;;5067991;28;20002;-47
2022/06/09 04:41:04;;;;;;;;;;;;;;;;;;5069797;28;20384;-43
2022/06/09 04:43:30;;;;;;;;;;;;;;;;;;5069515;28;19904;-47
2022/06/09 04:45:56;;;;;;;;;;;;;;;;;;5069364;28;20523;-46
2022/06/09 04:48:22;;;;;;;;;;;;;;;;;;5069447;28;19908;-43
2022/06/09 04:50:48;;;;;;;;;;;;;;;;;;5069103;28;19908;-47
2022/06/09 04:53:14;;;;;;;;;;;;;;;;;;5069780;28;19912;-44
2022/06/09 04:55:39;;;;;;;;;;;;;;;;;;5069105;28;20425;-43
2022/06/09 04:58:05;;;;;;;;;;;;;;;;;;5068918;28;19908;-45
2022/06/09 05:00:31;;;;;;;;;;;;;;;;;;5069174;28;19912;-44
2022/06/09 05:02:59;;;;;;;;;;;;;;;;;;5069355;28;20253;-43
2022/06/09 05:05:25;;;;;;;;;;;;;;;;;;5069055;28;19995;-44
2022/06/09 05:07:51;;;;;;;;;;;;;;;;;;5067755;28;19998;-46
2022/06/09 05:10:17;;;;;;;;;;;;;;;;;;5069686;28;19909;-47
2022/06/09 05:12:43;;;;;;;;;;;;;;;;;;5068950;28;19904;-44
2022/06/09 05:15:09;;;;;;;;;;;;;;;;;;5068804;28;19974;-44
2022/06/09 05:17:35;;;;;;;;;;;;;;;;;;5067587;28;20360;-46
2022/06/09 05:20:01;;;;;;;;;;;;;;;;;;5069045;28;19915;-43
2022/06/09 05:22:27;;;;;;;;;;;;;;;;;;5067167;28;19928;-44
2022/06/09 05:24:57;;;;;;;;;;;;;;;;;;5068805;28;19908;-43
2022/06/09 05:27:23;;;;;;;;;;;;;;;;;;5068779;28;19915;-45
2022/06/09 05:29:49;;;;;;;;;;;;;;;;;;5068677;28;19904;-43
2022/06/09 05:32:15;;;;;;;;;;;;;;;;;;5063913;28;19909;-45
2022/06/09 05:34:41;;;;;;;;;;;;;;;;;;5048880;28;20110;-43
2022/06/09 05:37:07;;;;;;;;;;;;;;;;;;5048654;28;19904;-44
2022/06/09 05:45:02;;;;;;;;;;;;;;;;;;5048401;28;20300;-44
2022/06/09 05:47:28;;;;;;;;;;;;;;;;;;5048225;28;19909;-46
2022/06/09 05:49:54;;;;;;;;;;;;;;;;;;5058237;28;19977;-43
2022/06/09 05:52:22;;;;;;;;;;;;;;;;;;5078746;28;19915;-43
2022/06/09 05:54:48;;;;;;;;;;;;;;;;;;5068104;28;19916;-44
2022/06/09 05:57:14;;;;;;;;;;;;;;;;;;5068013;28;19912;-44
2022/06/09 05:59:40;;;;;;;;;;;;;;;;;;5068137;28;19908;-44
2022/06/09 06:02:06;;;;;;;;;;;;;;;;;;5066210;28;20003;-44
2022/06/09 06:04:32;;;;;;;;;;;;;;;;;;5068017;28;19916;-44
2022/06/09 06:06:59;;;;;;;;;;;;;;;;;;5051555;28;20398;-44
2022/06/09 06:09:25;;;;;;;;;;;;;;;;;;5062497;28;20366;-46
2022/06/09 06:11:51;;;;;;;;;;;;;;;;;;5069166;28;19908;-47
2022/06/09 06:14:16;;;;;;;;;;;;;;;;;;5066763;28;19912;-46
2022/06/09 06:16:42;;;;;;;;;;;;;;;;;;5069812;28;19908;-44
2022/06/09 06:19:08;;;;;;;;;;;;;;;;;;5069545;28;19947;-45
2022/06/09 06:21:34;;;;;;;;;;;;;;;;;;5067667;28;19908;-44
2022/06/09 06:24:00;;;;;;;;;;;;;;;;;;5067552;28;19913;-43
2022/06/09 06:26:26;;;;;;;;;;;;;;;;;;5067267;28;19908;-46
2022/06/09 06:28:52;;;;;;;;;;;;;;;;;;5067494;28;19958;-44
2022/06/09 06:31:18;;;;;;;;;;;;;;;;;;5067751;28;19943;-45
2022/06/09 06:33:44;;;;;;;;;;;;;;;;;;5055503;28;19949;-48
2022/06/09 06:36:10;;;;;;;;;;;;;;;;;;5055508;28;19947;-46
2022/06/09 06:38:36;;;;;;;;;;;;;;;;;;5045865;28;19905;-47
2022/06/09 06:41:02;;;;;;;;;;;;;;;;;;5073687;28;19912;-45
2022/06/09 06:43:28;;;;;;;;;;;;;;;;;;5071518;28;19956;-44
2022/06/09 06:45:55;;;;;;;;;;;;;;;;;;5061622;28;19995;-44
2022/06/09 06:48:21;;;;;;;;;;;;;;;;;;5051954;28;19909;-47
2022/06/09 06:50:47;;;;;;;;;;;;;;;;;;5047950;28;19915;-47
2022/06/09 06:53:13;;;;;;;;;;;;;;;;;;5046480;28;19909;-46
2022/06/09 06:55:40;;;;;;;;;;;;;;;;;;5047637;28;20284;-44
2022/06/09 06:58:06;;;;;;;;;;;;;;;;;;5066168;28;20398;-47
2022/06/09 07:00:32;;;;;;;;;;;;;;;;;;5054936;28;19995;-44
2022/06/09 07:02:58;;;;;;;;;;;;;;;;;;5052254;28;19919;-45
2022/06/09 07:05:24;;;;;;;;;;;;;;;;;;5066155;28;19916;-45
2022/06/09 07:07:50;;;;;;;;;;;;;;;;;;5058917;28;20402;-44
2022/06/09 07:10:16;;;;;;;;;;;;;;;;;;5066175;28;19957;-45
2022/06/09 07:12:42;;;;;;;;;;;;;;;;;;5070306;28;19965;-45
2022/06/09 07:15:07;;;;;;;;;;;;;;;;;;5066042;28;19908;-45
2022/06/09 07:17:33;;;;;;;;;;;;;;;;;;5066103;28;19908;-46
2022/06/09 07:20:00;;;;;;;;;;;;;;;;;;5065686;28;19905;-45
2022/06/09 07:22:26;;;;;;;;;;;;;;;;;;5066992;28;19985;-47
2022/06/09 07:24:55;;;;;;;;;;;;;;;;;;5068989;28;20521;-47
2022/06/09 07:27:21;;;;;;;;;;;;;;;;;;5066164;28;20405;-49
2022/06/09 07:29:47;;;;;;;;;;;;;;;;;;5066490;28;20022;-48
2022/06/09 07:32:13;;;;;;;;;;;;;;;;;;5066395;28;19912;-46
2022/06/09 07:34:40;;;;;;;;;;;;;;;;;;5066312;28;19912;-45
2022/06/09 07:37:06;;;;;;;;;;;;;;;;;;5065970;28;19917;-47
2022/06/09 07:39:32;;;;;;;;;;;;;;;;;;5068463;28;20026;-45
2022/06/09 07:41:58;;;;;;;;;;;;;;;;;;5087787;28;19951;-46
2022/06/09 07:44:24;;;;;;;;;;;;;;;;;;5083322;28;19908;-45
2022/06/09 07:46:49;;;;;;;;;;;;;;;;;;5070430;28;19927;-45
2022/06/09 07:49:15;;;;;;;;;;;;;;;;;;5072092;28;19904;-45
2022/06/09 07:51:41;;;;;;;;;;;;;;;;;;5072692;28;19905;-47
2022/06/09 07:54:08;;;;;;;;;;;;;;;;;;5091504;28;19977;-46
2022/06/09 07:56:34;;;;;;;;;;;;;;;;;;5086272;28;20422;-45
2022/06/09 07:59:00;;;;;;;;;;;;;;;;;;5071535;28;19912;-45
2022/06/09 08:01:26;;;;;;;;;;;;;;;;;;5071210;28;19908;-47
2022/06/09 08:03:52;;;;;;;;;;;;;;;;;;5072716;28;20462;-46
2022/06/09 08:06:18;;;;;;;;;;;;;;;;;;5071082;28;19912;-45
2022/06/09 08:08:44;;;;;;;;;;;;;;;;;;5065736;28;19918;-44
2022/06/09 08:11:10;;;;;;;;;;;;;;;;;;5070577;28;19905;-47
2022/06/09 08:13:37;;;;;;;;;;;;;;;;;;5088937;28;20022;-46
2022/06/09 08:16:03;;;;;;;;;;;;;;;;;;5088856;28;20394;-45
2022/06/09 08:18:29;;;;;;;;;;;;;;;;;;5090311;28;19911;-44
2022/06/09 08:20:56;;;;;;;;;;;;;;;;;;5081534;28;19908;-44
2022/06/09 08:23:22;;;;;;;;;;;;;;;;;;5069373;28;19949;-46
2022/06/09 08:25:48;;;;;;;;;;;;;;;;;;5069958;28;20348;-45
2022/06/09 08:28:18;;;;;;;;;;;;;;;;;;5085905;28;19912;-47
2022/06/09 08:30:44;;;;;;;;;;;;;;;;;;5090662;28;20287;-46
2022/06/09 08:33:10;;;;;;;;;;;;;;;;;;5079037;28;19908;-46
2022/06/09 08:35:36;;;;;;;;;;;;;;;;;;5069465;28;19919;-46
2022/06/09 08:38:02;;;;;;;;;;;;;;;;;;5086761;28;19946;-45
2022/06/09 08:40:28;;;;;;;;;;;;;;;;;;5076124;28;19923;-45
2022/06/09 08:42:54;;;;;;;;;;;;;;;;;;5068399;28;19908;-45
2022/06/09 08:45:21;;;;;;;;;;;;;;;;;;5070352;28;19977;-47
2022/06/09 08:47:47;;;;;;;;;;;;;;;;;;5091284;28;19952;-46
2022/06/09 08:50:14;;;;;;;;;;;;;;;;;;5074524;28;19993;-45
2022/06/09 08:52:41;;;;;;;;;;;;;;;;;;5081489;28;19950;-48
2022/06/09 08:55:06;;;;;;;;;;;;;;;;;;5065543;28;19919;-48
2022/06/09 08:57:32;;;;;;;;;;;;;;;;;;5076698;28;19912;-46
2022/06/09 08:59:58;;;;;;;;;;;;;;;;;;5071674;28;19912;-44
2022/06/09 09:02:24;;;;;;;;;;;;;;;;;;5074144;28;19923;-48
2022/06/09 09:04:50;;;;;;;;;;;;;;;;;;5068857;28;19912;-45
2022/06/09 09:07:20;;;;;;;;;;;;;;;;;;5069416;28;19905;-48
2022/06/09 09:09:47;;;;;;;;;;;;;;;;;;5067543;28;20629;-49
2022/06/09 09:12:13;;;;;;;;;;;;;;;;;;5069432;28;19977;-46
2022/06/09 09:14:39;;;;;;;;;;;;;;;;;;5068713;28;19905;-46
2022/06/09 09:17:06;;;;;;;;;;;;;;;;;;5067093;28;19959;-47
2022/06/09 09:19:32;;;;;;;;;;;;;;;;;;5068786;28;19905;-45
2022/06/09 09:21:58;;;;;;;;;;;;;;;;;;5068495;28;19904;-44
2022/06/09 09:24:25;;;;;;;;;;;;;;;;;;5069336;28;20403;-48
2022/06/09 09:26:51;;;;;;;;;;;;;;;;;;5068538;28;19904;-48
2022/06/09 09:29:18;;;;;;;;;;;;;;;;;;5068298;28;19999;-47
2022/06/09 09:31:44;;;;;;;;;;;;;;;;;;5069421;28;19919;-48
2022/06/09 09:34:10;;;;;;;;;;;;;;;;;;5067377;28;19904;-47
2022/06/09 09:36:37;;;;;;;;;;;;;;;;;;5068323;28;19904;-46
2022/06/09 09:39:03;;;;;;;;;;;;;;;;;;5068440;28;19920;-50
2022/06/09 09:41:31;;;;;;;;;;;;;;;;;;5068409;28;19995;-45
2022/06/09 09:43:57;;;;;;;;;;;;;;;;;;5068099;28;19904;-47
2022/06/09 09:46:24;;;;;;;;;;;;;;;;;;5066393;28;19913;-48
2022/06/09 09:48:50;;;;;;;;;;;;;;;;;;5068321;28;19905;-46
2022/06/09 09:51:17;;;;;;;;;;;;;;;;;;5068599;28;19911;-48
2022/06/09 09:53:44;;;;;;;;;;;;;;;;;;5086678;28;19939;-48
2022/06/09 09:56:10;;;;;;;;;;;;;;;;;;5078000;28;19919;-47
2022/06/09 09:58:39;;;;;;;;;;;;;;;;;;5065679;28;19908;-45
2022/06/09 10:01:06;;;;;;;;;;;;;;;;;;5068521;28;20375;-47
2022/06/09 10:09:02;;;;;;;;;;;;;;;;;;5066354;28;19954;-48
2022/06/09 10:14:13;;;;;;;;;;;;;;;;;;5067461;28;19916;-45
2022/06/09 10:16:39;;;;;;;;;;;;;;;;;;5072950;28;19911;-45
2022/06/09 10:19:05;;;;;;;;;;;;;;;;;;5066344;28;20276;-46
2022/06/09 10:21:31;;;;;;;;;;;;;;;;;;5063402;28;19909;-46
2022/06/09 10:23:57;;;;;;;;;;;;;;;;;;5058334;28;19955;-44
2022/06/09 10:26:23;;;;;;;;;;;;;;;;;;5048219;28;19908;-48
2022/06/09 10:28:50;;;;;;;;;;;;;;;;;;5067069;28;20357;-45
2022/06/09 10:31:16;;;;;;;;;;;;;;;;;;5069906;28;19954;-45
2022/06/09 10:33:42;;;;;;;;;;;;;;;;;;5071224;28;19908;-45
2022/06/09 10:36:08;;;;;;;;;;;;;;;;;;5077219;28;19908;-45
2022/06/09 10:38:34;;;;;;;;;;;;;;;;;;5064835;28;19986;-45
2022/06/09 10:40:59;;;;;;;;;;;;;;;;;;5075185;28;19919;-44
2022/06/09 10:43:25;;;;;;;;;;;;;;;;;;5073582;28;19909;-47
2022/06/09 10:45:52;;;;;;;;;;;;;;;;;;5072183;28;19973;-44
2022/06/09 10:56:32;;;;;;;;;;;;;;;;;;5059071;28;19934;-45
2022/06/09 10:58:58;;;;;;;;;;;;;;;;;;5078052;28;20347;-47
2022/06/09 11:01:24;;;;;;;;;;;;;;;;;;5088086;28;19926;-44
2022/06/09 11:03:50;;;;;;;;;;;;;;;;;;5088025;28;20268;-45
2022/06/09 11:06:16;;;;;;;;;;;;;;;;;;5074887;28;19912;-45
2022/06/09 11:08:42;;;;;;;;;;;;;;;;;;5067808;28;19926;-45
2022/06/09 11:11:08;;;;;;;;;;;;;;;;;;5060531;28;19916;-47
2022/06/09 11:13:34;;;;;;;;;;;;;;;;;;5067296;28;19999;-45
2022/06/09 11:16:00;;;;;;;;;;;;;;;;;;5076798;28;19913;-47
2022/06/09 11:18:26;;;;;;;;;;;;;;;;;;5047673;28;19905;-46
2022/06/09 11:20:52;;;;;;;;;;;;;;;;;;5054355;28;19957;-47
2022/06/09 11:23:17;;;;;;;;;;;;;;;;;;5050522;28;20295;-44
2022/06/09 11:25:43;;;;;;;;;;;;;;;;;;5054774;28;19920;-45
2022/06/09 11:28:09;;;;;;;;;;;;;;;;;;5075233;28;19909;-47
2022/06/09 11:30:35;;;;;;;;;;;;;;;;;;5057394;28;19931;-46
2022/06/09 11:33:01;;;;;;;;;;;;;;;;;;5059594;28;19931;-46
2022/06/09 11:35:27;;;;;;;;;;;;;;;;;;5060754;28;19908;-45
2022/06/09 11:37:53;;;;;;;;;;;;;;;;;;5061979;28;19935;-47
2022/06/09 11:40:19;;;;;;;;;;;;;;;;;;5061375;28;19912;-44
2022/06/09 11:42:45;;;;;;;;;;;;;;;;;;5053938;28;19966;-46
2022/06/09 11:45:11;;;;;;;;;;;;;;;;;;5065783;28;19919;-44
2022/06/09 11:47:38;;;;;;;;;;;;;;;;;;5079574;28;19950;-44
2022/06/09 11:50:04;;;;;;;;;;;;;;;;;;5068000;28;20362;-45
2022/06/09 11:52:30;;;;;;;;;;;;;;;;;;5057221;28;19913;-45
2022/06/09 11:54:56;;;;;;;;;;;;;;;;;;5057615;28;19920;-42
2022/06/09 11:57:22;;;;;;;;;;;;;;;;;;5061557;28;19912;-43
2022/06/09 11:59:48;;;;;;;;;;;;;;;;;;5062957;28;19915;-43
2022/06/09 12:02:14;;;;;;;;;;;;;;;;;;5063466;28;19944;-43
2022/06/09 12:04:39;;;;;;;;;;;;;;;;;;5048645;28;19912;-42
2022/06/09 12:07:05;;;;;;;;;;;;;;;;;;5065891;28;19904;-42
2022/06/09 12:09:34;;;;;;;;;;;;;;;;;;5064435;28;19908;-43
2022/06/09 12:12:00;;;;;;;;;;;;;;;;;;5054479;28;20542;-43
2022/06/09 12:14:26;;;;;;;;;;;;;;;;;;5063441;28;19919;-44
2022/06/09 12:16:52;;;;;;;;;;;;;;;;;;5065234;28;19909;-43
2022/06/09 12:19:18;;;;;;;;;;;;;;;;;;5059209;28;19908;-43
2022/06/09 12:21:44;;;;;;;;;;;;;;;;;;5068466;28;21660;-42
2022/06/09 12:24:10;;;;;;;;;;;;;;;;;;5062494;28;20352;-43
2022/06/09 12:26:36;;;;;;;;;;;;;;;;;;5065078;28;20043;-43
2022/06/09 12:29:03;;;;;;;;;;;;;;;;;;5055682;28;19995;-43
2022/06/09 12:31:30;;;;;;;;;;;;;;;;;;5058040;28;20024;-42
2022/06/09 12:33:56;;;;;;;;;;;;;;;;;;5068512;28;19912;-43
2022/06/09 12:36:22;;;;;;;;;;;;;;;;;;5068175;28;19931;-43
2022/06/09 12:38:48;;;;;;;;;;;;;;;;;;5070300;28;19911;-43
2022/06/09 12:41:14;;;;;;;;;;;;;;;;;;5062547;28;19917;-44
2022/06/09 12:43:40;;;;;;;;;;;;;;;;;;5078932;28;20039;-43
2022/06/09 12:46:06;;;;;;;;;;;;;;;;;;5069485;28;20003;-43
2022/06/09 12:48:33;;;;;;;;;;;;;;;;;;5068960;28;19908;-43
2022/06/09 12:50:59;;;;;;;;;;;;;;;;;;5068397;28;19916;-43
2022/06/09 12:53:25;;;;;;;;;;;;;;;;;;5070281;28;19912;-43
2022/06/09 12:55:51;;;;;;;;;;;;;;;;;;5068082;28;19912;-44
2022/06/09 12:58:18;;;;;;;;;;;;;;;;;;5064007;28;19912;-45
2022/06/09 13:00:44;;;;;;;;;;;;;;;;;;5067832;28;19916;-43
2022/06/09 13:03:10;;;;;;;;;;;;;;;;;;5068578;28;19919;-43
2022/06/09 13:05:36;;;;;;;;;;;;;;;;;;5086585;28;19916;-43
2022/06/09 13:08:03;;;;;;;;;;;;;;;;;;5089618;28;19904;-44
2022/06/09 13:10:29;;;;;;;;;;;;;;;;;;5069941;28;19931;-45
2022/06/09 13:12:55;;;;;;;;;;;;;;;;;;5067422;28;20395;-43
2022/06/09 13:15:21;;;;;;;;;;;;;;;;;;5062721;28;20034;-43
2022/06/09 13:17:49;;;;;;;;;;;;;;;;;;5068275;28;20370;-44
2022/06/09 13:20:14;;;;;;;;;;;;;;;;;;5065602;28;19908;-43
2022/06/09 13:22:43;;;;;;;;;;;;;;;;;;5047898;28;19926;-43
2022/06/09 13:25:09;;;;;;;;;;;;;;;;;;5053181;28;19935;-43
2022/06/09 13:27:35;;;;;;;;;;;;;;;;;;5086824;28;20383;-43
2022/06/09 13:30:01;;;;;;;;;;;;;;;;;;5088140;28;19912;-42
2022/06/09 13:32:27;;;;;;;;;;;;;;;;;;5067062;28;19912;-43
2022/06/09 13:34:53;;;;;;;;;;;;;;;;;;5068199;28;20296;-43
2022/06/09 13:37:19;;;;;;;;;;;;;;;;;;5067484;28;20007;-42
2022/06/09 13:39:45;;;;;;;;;;;;;;;;;;5065874;28;19909;-43
2022/06/09 13:42:17;;;;;;;;;;;;;;;;;;5062516;28;19909;-43
2022/06/09 13:44:43;;;;;;;;;;;;;;;;;;5068332;28;19912;-43
2022/06/09 13:47:10;;;;;;;;;;;;;;;;;;5074536;28;19904;-43
2022/06/09 13:49:35;;;;;;;;;;;;;;;;;;5068231;28;19912;-44
2022/06/09 13:52:03;;;;;;;;;;;;;;;;;;5062519;28;19915;-45
2022/06/09 13:54:29;;;;;;;;;;;;;;;;;;5062813;28;19912;-44
2022/06/09 13:56:55;;;;;;;;;;;;;;;;;;5055347;28;20150;-43
2022/06/09 13:59:21;;;;;;;;;;;;;;;;;;5053907;28;19981;-43
2022/06/09 14:01:47;;;;;;;;;;;;;;;;;;5061826;28;19908;-43
2022/06/09 14:04:12;;;;;;;;;;;;;;;;;;5074025;28;19919;-44
2022/06/09 14:06:38;;;;;;;;;;;;;;;;;;5089382;28;19904;-43
2022/06/09 14:09:06;;;;;;;;;;;;;;;;;;5066347;28;19959;-43
2022/06/09 14:11:33;;;;;;;;;;;;;;;;;;5067066;28;19948;-44
2022/06/09 14:13:59;;;;;;;;;;;;;;;;;;5064393;28;20314;-42
2022/06/09 14:16:25;;;;;;;;;;;;;;;;;;5065630;28;20331;-42
2022/06/09 14:18:51;;;;;;;;;;;;;;;;;;5062880;28;19912;-42
2022/06/09 14:21:18;;;;;;;;;;;;;;;;;;5066348;28;19930;-43
2022/06/09 14:23:44;;;;;;;;;;;;;;;;;;5078573;28;19951;-43
2022/06/09 14:26:10;;;;;;;;;;;;;;;;;;5065333;28;19971;-42
2022/06/09 14:28:36;;;;;;;;;;;;;;;;;;5048785;28;20272;-43
2022/06/09 14:31:02;;;;;;;;;;;;;;;;;;5048094;28;19996;-43
2022/06/09 14:33:28;;;;;;;;;;;;;;;;;;5058096;28;19999;-43
2022/06/09 14:35:56;;;;;;;;;;;;;;;;;;5073253;28;20007;-44
2022/06/09 14:38:22;;;;;;;;;;;;;;;;;;5074666;28;19978;-42
2022/06/09 14:40:48;;;;;;;;;;;;;;;;;;5075447;28;19904;-42
2022/06/09 14:43:14;;;;;;;;;;;;;;;;;;5066163;28;20042;-42
2022/06/09 14:45:40;;;;;;;;;;;;;;;;;;5072203;28;19919;-42
2022/06/09 14:48:06;;;;;;;;;;;;;;;;;;5065298;28;19940;-42
2022/06/09 14:50:32;;;;;;;;;;;;;;;;;;5077416;28;19959;-42
2022/06/09 14:52:58;;;;;;;;;;;;;;;;;;5078177;28;19943;-44
2022/06/09 14:55:24;;;;;;;;;;;;;;;;;;5067097;28;19923;-47
2022/06/09 14:57:50;;;;;;;;;;;;;;;;;;5072468;28;19977;-44
2022/06/09 15:00:16;;;;;;;;;;;;;;;;;;5072301;28;19913;-45
2022/06/09 15:02:42;;;;;;;;;;;;;;;;;;5068030;28;19914;-45
2022/06/09 15:05:08;;;;;;;;;;;;;;;;;;5067912;28;19931;-45
2022/06/09 15:07:34;;;;;;;;;;;;;;;;;;5068293;28;19913;-46
2022/06/09 15:10:01;;;;;;;;;;;;;;;;;;5067249;28;19908;-46
2022/06/09 15:12:27;;;;;;;;;;;;;;;;;;5069676;28;19965;-45
2022/06/09 15:14:53;;;;;;;;;;;;;;;;;;5066420;28;19912;-45
2022/06/09 15:17:19;;;;;;;;;;;;;;;;;;5064294;28;20433;-45
2022/06/09 15:19:45;;;;;;;;;;;;;;;;;;5071448;28;20402;-46
2022/06/09 15:22:11;;;;;;;;;;;;;;;;;;5063245;28;19923;-46
2022/06/09 15:24:37;;;;;;;;;;;;;;;;;;5063825;28;19913;-45
2022/06/09 15:27:03;;;;;;;;;;;;;;;;;;5072479;28;19908;-45
2022/06/09 15:29:29;;;;;;;;;;;;;;;;;;5073012;28;19912;-46
2022/06/09 15:31:57;;;;;;;;;;;;;;;;;;5073391;28;19989;-44
2022/06/09 15:34:23;;;;;;;;;;;;;;;;;;5074913;28;20404;-47
2022/06/09 15:36:50;;;;;;;;;;;;;;;;;;5066308;28;19908;-45
2022/06/09 15:39:16;;;;;;;;;;;;;;;;;;5073047;28;19959;-45
2022/06/09 15:41:42;;;;;;;;;;;;;;;;;;5078376;28;19955;-48
2022/06/09 15:44:08;;;;;;;;;;;;;;;;;;5077346;28;20371;-48
2022/06/09 15:46:34;;;;;;;;;;;;;;;;;;5064391;28;19939;-44
2022/06/09 15:49:00;;;;;;;;;;;;;;;;;;5055727;28;20300;-49
2022/06/09 15:51:26;;;;;;;;;;;;;;;;;;5063552;28;19962;-45
2022/06/09 15:53:52;;;;;;;;;;;;;;;;;;5065920;28;19954;-45
2022/06/09 15:56:18;;;;;;;;;;;;;;;;;;5063714;28;19912;-45
2022/06/09 15:58:43;;;;;;;;;;;;;;;;;;5066109;28;19939;-46
2022/06/09 16:01:13;;;;;;;;;;;;;;;;;;5062955;28;19908;-44
2022/06/09 16:03:39;;;;;;;;;;;;;;;;;;5058681;28;19955;-44
2022/06/09 16:06:05;;;;;;;;;;;;;;;;;;5059918;28;19918;-46
2022/06/09 16:08:31;;;;;;;;;;;;;;;;;;5073548;28;19916;-44
2022/06/09 16:10:57;;;;;;;;;;;;;;;;;;5081781;28;19912;-44
2022/06/09 16:13:23;;;;;;;;;;;;;;;;;;5071702;28;19917;-44
2022/06/09 16:15:49;;;;;;;;;;;;;;;;;;5067760;28;19920;-45
2022/06/09 16:18:15;;;;;;;;;;;;;;;;;;5070316;28;19994;-45
2022/06/09 16:20:41;;;;;;;;;;;;;;;;;;5071238;28;19955;-44
2022/06/09 16:23:07;;;;;;;;;;;;;;;;;;5070078;28;19908;-47
2022/06/09 16:25:33;;;;;;;;;;;;;;;;;;5070854;28;19935;-44
2022/06/09 16:28:00;;;;;;;;;;;;;;;;;;5070547;28;19939;-44
2022/06/09 16:30:26;;;;;;;;;;;;;;;;;;5052472;28;19919;-47
2022/06/09 16:32:52;;;;;;;;;;;;;;;;;;5068097;28;20108;-46
2022/06/09 16:35:18;;;;;;;;;;;;;;;;;;5084163;28;19903;-44
2022/06/09 16:37:45;;;;;;;;;;;;;;;;;;5090432;28;19997;-45
2022/06/09 16:40:11;;;;;;;;;;;;;;;;;;5090628;28;19904;-45
2022/06/09 16:42:37;;;;;;;;;;;;;;;;;;5090181;28;19912;-47
2022/06/09 16:45:03;;;;;;;;;;;;;;;;;;5081776;28;19931;-48
2022/06/09 16:47:29;;;;;;;;;;;;;;;;;;5073838;28;19918;-44
2022/06/09 16:49:55;;;;;;;;;;;;;;;;;;5090655;28;19908;-45
2022/06/09 16:52:22;;;;;;;;;;;;;;;;;;5090562;28;20303;-46
2022/06/09 16:54:48;;;;;;;;;;;;;;;;;;5069581;28;19908;-46
2022/06/09 16:57:14;;;;;;;;;;;;;;;;;;5068681;28;19923;-47
2022/06/09 16:59:40;;;;;;;;;;;;;;;;;;5069119;28;19904;-45